createdAt,value
2022-11-10T00:00:49.486Z,99623.31
2022-11-10T00:03:52.829Z,99636.44
2022-11-10T00:07:14.428Z,99642.27
2022-11-10T00:10:31.572Z,99649.77
2022-11-10T00:13:35.828Z,99649.85
2022-11-10T00:16:56.134Z,99659.41
2022-11-10T00:19:58.252Z,99654.59
2022-11-10T00:22:59.941Z,99652.34
2022-11-10T00:26:01.942Z,99652.46
2022-11-10T00:29:03.752Z,99659.73
2022-11-10T00:32:05.426Z,99656.83
2022-11-10T00:35:07.878Z,99664.13
2022-11-10T00:38:10.104Z,99664.52
2022-11-10T00:41:12.161Z,99663.45
2022-11-10T00:44:13.882Z,99665.62
2022-11-10T00:47:15.488Z,99661.10
2022-11-10T00:50:17.450Z,99657.34
2022-11-10T00:53:19.563Z,99660.32
2022-11-10T00:56:22.888Z,99663.95
2022-11-10T00:59:24.553Z,99662.59
2022-11-10T01:02:26.283Z,99668.58
2022-11-10T01:05:28.345Z,99665.08
2022-11-10T01:08:29.903Z,99659.83
2022-11-10T01:11:31.552Z,99661.81
2022-11-10T01:14:33.205Z,99656.92
2022-11-10T01:17:35.020Z,99664.23
2022-11-10T01:20:36.684Z,99666.15
2022-11-10T01:23:38.584Z,99672.88
2022-11-10T01:26:40.254Z,99674.38
2022-11-10T01:29:41.950Z,99673.23
2022-11-10T01:32:43.855Z,99669.14
2022-11-10T01:35:46.068Z,99664.19
2022-11-10T01:38:47.774Z,99666.35
2022-11-10T01:41:49.414Z,99672.02
2022-11-10T01:45:22.661Z,99666.52
2022-11-10T01:48:30.493Z,99672.77
2022-11-10T01:51:35.546Z,99675.77
2022-11-10T01:54:41.334Z,99677.13
2022-11-10T01:57:43.671Z,99673.38
2022-11-10T02:00:45.464Z,99671.80
2022-11-10T02:03:54.539Z,99671.33
2022-11-10T02:06:56.469Z,99680.16
2022-11-10T02:09:58.097Z,99678.28
2022-11-10T02:12:59.820Z,99679.44
2022-11-10T02:16:01.510Z,99687.59
2022-11-10T02:19:17.999Z,99686.21
2022-11-10T02:22:19.675Z,99690.12
2022-11-10T02:25:22.460Z,99693.39
2022-11-10T02:28:25.634Z,99690.38
2022-11-10T02:31:27.297Z,99696.14
2022-11-10T02:34:28.982Z,99701.56
2022-11-10T02:37:30.818Z,99701.27
2022-11-10T02:40:32.332Z,99705.90
2022-11-10T02:43:34.604Z,99703.40
2022-11-10T02:46:37.752Z,99702.52
2022-11-10T02:49:39.400Z,99708.93
2022-11-10T02:52:41.067Z,99715.91
2022-11-10T02:55:42.754Z,99721.11
2022-11-10T02:58:44.420Z,99723.61
2022-11-10T03:01:46.141Z,99723.94
2022-11-10T03:04:47.797Z,99720.79
2022-11-10T03:07:54.181Z,99718.59
2022-11-10T03:10:56.687Z,99715.11
2022-11-10T03:14:02.025Z,99713.33
2022-11-10T03:17:04.642Z,99716.34
2022-11-10T03:20:06.619Z,99723.43
2022-11-10T03:23:08.561Z,99727.60
2022-11-10T03:26:10.256Z,99729.98
2022-11-10T03:29:11.931Z,99729.41
2022-11-10T03:32:13.677Z,99726.05
2022-11-10T03:35:15.386Z,99728.23
2022-11-10T03:38:17.439Z,99730.27
2022-11-10T03:41:20.462Z,99733.19
2022-11-10T03:44:22.705Z,99733.56
2022-11-10T03:47:24.657Z,99730.27
2022-11-10T03:50:26.237Z,99728.77
2022-11-10T03:53:27.864Z,99724.14
2022-11-10T03:56:29.634Z,99727.82
2022-11-10T03:59:31.490Z,99730.77
2022-11-10T04:02:33.255Z,99733.83
2022-11-10T04:05:53.637Z,99736.82
2022-11-10T04:09:01.014Z,99739.41
2022-11-10T04:12:24.888Z,99741.46
2022-11-10T04:15:42.127Z,99739.05
2022-11-10T04:18:43.737Z,99738.73
2022-11-10T04:21:45.513Z,99741.81
2022-11-10T04:24:47.116Z,99741.42
2022-11-10T04:27:48.960Z,99741.94
2022-11-10T04:30:50.551Z,99744.98
2022-11-10T04:33:53.001Z,99748.11
2022-11-10T04:36:54.700Z,99753.14
2022-11-10T04:39:56.234Z,99759.77
2022-11-10T04:42:57.945Z,99758.65
2022-11-10T04:45:59.660Z,99756.52
2022-11-10T04:49:01.669Z,99761.36
2022-11-10T04:52:03.514Z,99763.02
2022-11-10T04:55:05.743Z,99761.30
2022-11-10T04:58:07.344Z,99757.06
2022-11-10T05:01:20.624Z,99761.33
2022-11-10T05:04:22.388Z,99754.40
2022-11-10T05:07:23.895Z,99753.81
2022-11-10T05:10:26.248Z,99757.98
2022-11-10T05:13:28.161Z,99761.37
2022-11-10T05:16:29.805Z,99766.70
2022-11-10T05:19:31.318Z,99771.52
2022-11-10T05:22:32.995Z,99772.83
2022-11-10T05:25:35.625Z,99777.60
2022-11-10T05:28:38.452Z,99786.80
2022-11-10T05:31:40.071Z,99794.59
2022-11-10T05:34:41.849Z,99796.39
2022-11-10T05:37:43.575Z,99796.15
2022-11-10T05:40:45.260Z,99801.64
2022-11-10T05:43:47.456Z,99804.42
2022-11-10T05:46:49.083Z,99812.36
2022-11-10T05:49:50.740Z,99814.06
2022-11-10T05:52:53.851Z,99815.71
2022-11-10T05:55:55.652Z,99820.70
2022-11-10T05:58:57.254Z,99831.13
2022-11-10T06:01:58.837Z,99835.53
2022-11-10T06:05:00.553Z,99841.69
2022-11-10T06:08:02.976Z,99843.94
2022-11-10T06:11:04.803Z,99848.62
2022-11-10T06:14:06.374Z,99853.33
2022-11-10T06:17:08.056Z,99857.67
2022-11-10T06:20:09.916Z,99862.20
2022-11-10T06:23:12.893Z,99867.46
2022-11-10T06:26:14.549Z,99875.44
2022-11-10T06:29:16.120Z,99878.50
2022-11-10T06:32:18.321Z,99881.64
2022-11-10T06:35:20.622Z,99884.27
2022-11-10T06:38:22.271Z,99890.73
2022-11-10T06:41:25.423Z,99891.46
2022-11-10T06:44:27.357Z,99899.00
2022-11-10T06:47:29.841Z,99908.16
2022-11-10T06:50:31.717Z,99917.85
2022-11-10T06:53:33.609Z,99918.77
2022-11-10T06:56:35.759Z,99924.13
2022-11-10T06:59:37.476Z,99925.46
2022-11-10T07:02:38.966Z,99933.77
2022-11-10T07:05:40.569Z,99936.24
2022-11-10T07:08:42.241Z,99940.58
2022-11-10T07:11:43.975Z,99942.71
2022-11-10T07:14:45.577Z,99946.89
2022-11-10T07:17:47.192Z,99946.91
2022-11-10T07:20:48.880Z,99946.03
2022-11-10T07:23:50.540Z,99948.95
2022-11-10T07:26:52.257Z,99950.99
2022-11-10T07:29:53.917Z,99958.95
2022-11-10T07:33:12.476Z,99963.28
2022-11-10T07:36:14.402Z,99962.85
2022-11-10T07:39:16.224Z,99967.23
2022-11-10T07:42:17.904Z,99975.03
2022-11-10T07:45:19.435Z,99973.94
2022-11-10T07:48:21.205Z,99971.58
2022-11-10T07:51:22.940Z,99976.47
2022-11-10T07:54:24.527Z,99977.84
2022-11-10T07:57:26.093Z,99982.17
2022-11-10T08:00:28.458Z,99982.89
2022-11-10T08:03:30.266Z,99989.15
2022-11-10T08:06:36.131Z,100002.16
2022-11-10T08:09:38.235Z,100007.59
2022-11-10T08:12:39.863Z,100010.23
2022-11-10T08:15:42.119Z,100010.06
2022-11-10T08:18:43.765Z,100015.11
2022-11-10T08:21:45.518Z,100018.24
2022-11-10T08:24:47.278Z,100019.55
2022-11-10T08:27:48.975Z,100023.23
2022-11-10T08:30:50.655Z,100027.48
2022-11-10T08:33:52.576Z,100029.83
2022-11-10T08:36:54.278Z,100030.16
2022-11-10T08:39:56.024Z,100036.48
2022-11-10T08:42:59.809Z,100039.08
2022-11-10T08:46:03.971Z,100046.86
2022-11-10T08:49:05.682Z,100056.96
2022-11-10T08:52:07.448Z,100058.73
2022-11-10T08:55:09.479Z,100068.23
2022-11-10T08:58:16.640Z,100068.95
2022-11-10T09:01:18.222Z,100074.05
2022-11-10T09:04:19.808Z,100084.72
2022-11-10T09:07:22.407Z,100089.92
2022-11-10T09:10:24.185Z,100094.94
2022-11-10T09:13:29.779Z,100096.36
2022-11-10T09:16:32.314Z,100102.52
2022-11-10T09:19:34.169Z,100098.67
2022-11-10T09:22:36.858Z,100105.05
2022-11-10T09:25:39.225Z,100113.72
2022-11-10T09:28:40.914Z,100122.02
2022-11-10T09:31:44.915Z,100121.00
2022-11-10T09:34:48.947Z,100122.60
2022-11-10T09:37:54.600Z,100124.52
2022-11-10T09:41:03.026Z,100124.64
2022-11-10T09:44:16.718Z,100121.55
2022-11-10T09:47:50.802Z,100116.95
2022-11-10T09:51:06.080Z,100117.38
2022-11-10T09:54:16.942Z,100119.08
2022-11-10T09:57:21.993Z,100119.73
2022-11-10T10:00:23.646Z,100116.86
2022-11-10T10:03:28.594Z,100122.35
2022-11-10T10:06:43.665Z,100130.98
2022-11-10T10:09:52.283Z,100130.15
2022-11-10T10:13:31.353Z,100134.10
2022-11-10T10:16:59.609Z,100144.48
2022-11-10T10:20:04.165Z,100144.45
2022-11-10T10:24:02.163Z,100150.38
2022-11-10T10:26:54.704Z,100155.73
2022-11-10T10:29:56.454Z,100156.58
2022-11-10T10:33:14.489Z,100158.92
2022-11-10T10:36:28.290Z,100159.00
2022-11-10T10:39:37.073Z,100159.66
2022-11-10T10:42:38.760Z,100160.91
2022-11-10T10:45:42.429Z,100157.46
2022-11-10T10:48:44.294Z,100168.87
2022-11-10T10:51:46.177Z,100173.44
2022-11-10T10:54:47.784Z,100172.73
2022-11-10T10:57:58.331Z,100167.08
2022-11-10T11:01:15.633Z,100169.09
2022-11-10T11:04:30.110Z,100170.39
2022-11-10T11:07:31.708Z,100175.77
2022-11-10T11:10:35.501Z,100173.16
2022-11-10T11:13:37.778Z,100173.41
2022-11-10T11:16:56.351Z,100165.59
2022-11-10T11:20:00.008Z,100177.23
2022-11-10T11:23:34.438Z,100183.30
2022-11-10T11:26:50.509Z,100186.96
2022-11-10T11:30:15.809Z,100186.14
2022-11-10T11:33:21.444Z,100180.52
2022-11-10T11:36:34.051Z,100179.48
2022-11-10T11:39:52.109Z,100178.97
2022-11-10T11:43:15.724Z,100183.67
2022-11-10T11:46:35.012Z,100186.81
2022-11-10T11:49:59.111Z,100192.91
2022-11-10T11:53:18.763Z,100189.56
2022-11-10T11:56:28.761Z,100186.33
2022-11-10T11:59:36.439Z,100188.96
2022-11-10T12:02:52.430Z,100193.09
2022-11-10T12:06:12.860Z,100202.56
2022-11-10T12:09:30.173Z,100203.34
2022-11-10T12:12:53.507Z,100207.50
2022-11-10T12:16:01.520Z,100209.22
2022-11-10T12:19:33.397Z,100206.65
2022-11-10T12:22:48.324Z,100205.55
2022-11-10T12:26:12.939Z,100205.42
2022-11-10T12:29:41.966Z,100212.69
2022-11-10T12:32:55.883Z,100215.73
2022-11-10T12:35:58.579Z,100220.61
2022-11-10T12:39:11.194Z,100215.21
2022-11-10T12:42:18.163Z,100223.23
2022-11-10T12:45:34.178Z,100228.40
2022-11-10T12:48:46.977Z,100231.42
2022-11-10T12:52:12.494Z,100231.04
2022-11-10T12:55:14.950Z,100238.40
2022-11-10T12:58:18.243Z,100240.10
2022-11-10T13:01:20.413Z,100244.33
2022-11-10T13:04:22.294Z,100254.02
2022-11-10T13:07:24.442Z,100253.82
2022-11-10T13:10:28.036Z,100250.00
2022-11-10T13:13:31.001Z,100254.48
2022-11-10T13:16:41.583Z,100249.62
2022-11-10T13:19:43.524Z,100255.98
2022-11-10T13:22:45.252Z,100262.54
2022-11-10T13:25:54.407Z,100265.46
2022-11-10T13:28:58.487Z,100274.73
2022-11-10T13:32:30.660Z,100283.41
2022-11-10T13:35:38.410Z,100284.20
2022-11-10T13:38:44.450Z,100288.23
2022-11-10T13:42:01.100Z,100292.70
2022-11-10T13:45:27.862Z,100296.75
2022-11-10T13:48:32.977Z,100297.91
2022-11-10T13:51:44.697Z,100297.88
2022-11-10T13:55:03.610Z,100301.32
2022-11-10T13:58:09.410Z,100302.59
2022-11-10T14:01:17.231Z,100313.06
2022-11-10T14:04:40.627Z,100316.81
2022-11-10T14:07:45.090Z,100318.86
2022-11-10T14:10:52.566Z,100322.63
2022-11-10T14:14:01.137Z,100320.06
2022-11-10T14:17:03.459Z,100318.74
2022-11-10T14:20:21.671Z,100323.70
2022-11-10T14:23:29.667Z,100328.17
2022-11-10T14:26:42.630Z,100338.09
2022-11-10T14:29:44.714Z,100336.83
2022-11-10T14:33:05.045Z,100343.52
2022-11-10T14:36:10.182Z,100344.88
2022-11-10T14:39:14.903Z,100351.56
2022-11-10T14:42:22.697Z,100350.27
2022-11-10T14:45:28.429Z,100352.66
2022-11-10T14:48:38.046Z,100356.58
2022-11-10T14:51:40.296Z,100361.16
2022-11-10T14:54:44.836Z,100362.51
2022-11-10T14:57:49.664Z,100371.21
2022-11-10T15:00:51.802Z,100372.80
2022-11-10T15:03:53.700Z,100372.69
2022-11-10T15:06:56.828Z,100377.15
2022-11-10T15:10:15.975Z,100383.69
2022-11-10T15:13:26.950Z,100389.84
2022-11-10T15:16:30.726Z,100395.83
2022-11-10T15:19:37.064Z,100403.69
2022-11-10T15:22:38.688Z,100409.07
2022-11-10T15:25:41.175Z,100412.35
2022-11-10T15:28:43.375Z,100417.96
2022-11-10T15:31:45.520Z,100418.38
2022-11-10T15:34:48.187Z,100420.92
2022-11-10T15:38:19.623Z,100426.90
2022-11-10T15:41:27.160Z,100427.91
2022-11-10T15:44:29.203Z,100431.19
2022-11-10T15:47:31.064Z,100433.45
2022-11-10T15:50:32.727Z,100435.48
2022-11-10T15:53:40.501Z,100441.48
2022-11-10T15:56:42.380Z,100445.94
2022-11-10T15:59:44.253Z,100452.60
2022-11-10T16:02:46.052Z,100454.91
2022-11-10T16:05:48.597Z,100454.48
2022-11-10T16:08:50.213Z,100451.86
2022-11-10T16:11:51.971Z,100462.42
2022-11-10T16:14:53.858Z,100463.08
2022-11-10T16:17:57.386Z,100464.46
2022-11-10T16:20:59.061Z,100470.45
2022-11-10T16:24:00.671Z,100473.98
2022-11-10T16:27:05.714Z,100478.45
2022-11-10T16:30:13.606Z,100479.33
2022-11-10T16:33:16.998Z,100483.69
2022-11-10T16:36:29.251Z,100488.30
2022-11-10T16:39:31.872Z,100492.05
2022-11-10T16:42:33.494Z,100493.33
2022-11-10T16:45:35.269Z,100500.76
2022-11-10T16:48:37.788Z,100506.21
2022-11-10T16:51:47.275Z,100504.89
2022-11-10T16:54:50.549Z,100506.55
2022-11-10T16:57:52.185Z,100511.30
2022-11-10T17:00:57.462Z,100518.25
2022-11-10T17:04:01.621Z,100526.23
2022-11-10T17:07:03.614Z,100537.30
2022-11-10T17:10:06.497Z,100552.95
2022-11-10T17:13:11.322Z,100557.39
2022-11-10T17:16:26.377Z,100560.32
2022-11-10T17:19:28.087Z,100567.30
2022-11-10T17:22:32.119Z,100567.58
2022-11-10T17:25:35.518Z,100575.41
2022-11-10T17:28:37.324Z,100582.08
2022-11-10T17:31:38.945Z,100589.96
2022-11-10T17:34:40.496Z,100595.52
2022-11-10T17:37:43.687Z,100596.65
2022-11-10T17:40:45.463Z,100601.54
2022-11-10T17:43:47.664Z,100603.52
2022-11-10T17:46:49.245Z,100601.87
2022-11-10T17:49:50.906Z,100604.40
2022-11-10T17:52:52.801Z,100607.80
2022-11-10T17:55:54.415Z,100615.02
2022-11-10T17:58:56.062Z,100618.86
2022-11-10T18:01:58.321Z,100623.80
2022-11-10T18:05:00.231Z,100626.55
2022-11-10T18:08:02.083Z,100628.57
2022-11-10T18:11:03.780Z,100625.64
2022-11-10T18:14:05.551Z,100631.45
2022-11-10T18:17:07.193Z,100628.85
2022-11-10T18:20:10.204Z,100637.73
2022-11-10T18:23:13.014Z,100636.28
2022-11-10T18:26:14.684Z,100634.77
2022-11-10T18:29:16.295Z,100637.06
2022-11-10T18:32:17.967Z,100631.42
2022-11-10T18:35:19.777Z,100636.73
2022-11-10T18:38:21.481Z,100635.39
2022-11-10T18:41:41.822Z,100639.79
2022-11-10T18:44:43.644Z,100635.77
2022-11-10T18:47:45.416Z,100641.86
2022-11-10T18:50:47.195Z,100639.17
2022-11-10T18:53:48.760Z,100644.86
2022-11-10T18:56:50.970Z,100652.70
2022-11-10T18:59:52.654Z,100658.02
2022-11-10T19:02:55.404Z,100660.08
2022-11-10T19:05:58.925Z,100663.52
2022-11-10T19:09:00.716Z,100663.85
2022-11-10T19:12:02.349Z,100667.95
2022-11-10T19:15:04.634Z,100667.83
2022-11-10T19:18:06.447Z,100670.65
2022-11-10T19:21:20.330Z,100674.88
2022-11-10T19:24:27.775Z,100679.49
2022-11-10T19:27:30.578Z,100675.90
2022-11-10T19:30:32.235Z,100679.57
2022-11-10T19:33:36.125Z,100686.04
2022-11-10T19:36:38.152Z,100692.71
2022-11-10T19:39:40.149Z,100691.92
2022-11-10T19:42:41.857Z,100693.75
2022-11-10T19:45:43.515Z,100698.77
2022-11-10T19:48:45.333Z,100694.39
2022-11-10T19:51:49.304Z,100699.32
2022-11-10T19:54:50.869Z,100702.41
2022-11-10T19:57:52.571Z,100702.58
2022-11-10T20:00:54.981Z,100708.91
2022-11-10T20:03:56.633Z,100715.30
2022-11-10T20:07:27.618Z,100715.79
2022-11-10T20:10:30.348Z,100713.41
2022-11-10T20:13:32.857Z,100711.10
2022-11-10T20:16:34.571Z,100714.20
2022-11-10T20:19:40.941Z,100720.41
2022-11-10T20:22:43.242Z,100729.48
2022-11-10T20:25:45.021Z,100739.70
2022-11-10T20:28:47.441Z,100747.00
2022-11-10T20:31:49.088Z,100749.71
2022-11-10T20:34:50.923Z,100754.16
2022-11-10T20:37:52.701Z,100754.75
2022-11-10T20:41:02.537Z,100753.36
2022-11-10T20:44:04.229Z,100760.83
2022-11-10T20:47:05.970Z,100763.80
2022-11-10T20:50:13.138Z,100768.20
2022-11-10T20:53:16.643Z,100772.52
2022-11-10T20:56:18.369Z,100778.54
2022-11-10T20:59:20.184Z,100778.73
2022-11-10T21:02:21.958Z,100773.45
2022-11-10T21:05:23.589Z,100769.49
2022-11-10T21:08:25.364Z,100766.35
2022-11-10T21:11:45.762Z,100771.88
2022-11-10T21:14:47.760Z,100770.73
2022-11-10T21:17:49.417Z,100770.84
2022-11-10T21:20:51.689Z,100775.11
2022-11-10T21:23:57.562Z,100777.45
2022-11-10T21:26:59.354Z,100785.20
2022-11-10T21:30:01.064Z,100788.02
2022-11-10T21:33:05.921Z,100788.50
2022-11-10T21:36:08.380Z,100791.05
2022-11-10T21:39:10.049Z,100791.94
2022-11-10T21:42:11.649Z,100788.73
2022-11-10T21:45:13.301Z,100790.43
2022-11-10T21:48:14.960Z,100787.03
2022-11-10T21:51:16.842Z,100787.33
2022-11-10T21:54:18.421Z,100790.14
2022-11-10T21:57:19.999Z,100796.66
2022-11-10T22:00:21.780Z,100795.89
2022-11-10T22:03:23.625Z,100796.85
2022-11-10T22:06:45.903Z,100796.50
2022-11-10T22:10:06.570Z,100788.89
2022-11-10T22:13:34.460Z,100794.98
2022-11-10T22:17:06.967Z,100804.30
2022-11-10T22:20:08.831Z,100801.30
2022-11-10T22:23:11.700Z,100813.48
2022-11-10T22:26:13.427Z,100812.90
2022-11-10T22:29:15.211Z,100808.10
2022-11-10T22:32:16.944Z,100812.05
2022-11-10T22:35:37.519Z,100812.78
2022-11-10T22:38:41.366Z,100814.77
2022-11-10T22:42:02.070Z,100814.80
2022-11-10T22:45:03.886Z,100816.84
2022-11-10T22:48:24.094Z,100814.84
2022-11-10T22:51:30.508Z,100817.99
2022-11-10T22:54:32.071Z,100819.58
2022-11-10T22:57:33.644Z,100819.48
2022-11-10T23:00:35.318Z,100831.73
2022-11-10T23:03:37.128Z,100830.33
2022-11-10T23:06:39.130Z,100832.01
2022-11-10T23:09:40.790Z,100826.89
2022-11-10T23:12:42.400Z,100829.02
2022-11-10T23:15:45.518Z,100832.11
2022-11-10T23:18:49.708Z,100844.28
2022-11-10T23:21:51.326Z,100849.95
2022-11-10T23:24:56.926Z,100849.96
2022-11-10T23:27:59.533Z,100853.52
2022-11-10T23:31:06.974Z,100844.30
2022-11-10T23:34:08.897Z,100835.70
2022-11-10T23:37:10.513Z,100836.63
2022-11-10T23:40:12.438Z,100839.91
2022-11-10T23:43:14.074Z,100841.37
2022-11-10T23:46:15.939Z,100848.65
2022-11-10T23:49:17.578Z,100853.50
2022-11-10T23:52:19.210Z,100855.90
2022-11-10T23:55:20.939Z,100856.23
2022-11-10T23:58:23.086Z,100856.96
